sensor_id;sensor_type;location;lat;lon;timestamp;pressure;altitude;pressure_sealevel;temperature
8362;BMP180;4218;48.326;14.304;2023-02-01T00:02:07;98722.00;;;2.00
8362;BMP180;4218;48.326;14.304;2023-02-01T00:04:35;98725.00;;;2.10
8362;BMP180;4218;48.326;14.304;2023-02-01T00:07:05;98729.00;;;2.00
8362;BMP180;4218;48.326;14.304;2023-02-01T00:09:32;98709.00;;;2.00
8362;BMP180;4218;48.326;14.304;2023-02-01T00:11:58;98709.00;;;2.00
8362;BMP180;4218;48.326;14.304;2023-02-01T00:14:27;98719.00;;;2.10
8362;BMP180;4218;48.326;14.304;2023-02-01T00:16:53;98718.00;;;2.10
8362;BMP180;4218;48.326;14.304;2023-02-01T00:19:23;98710.00;;;2.10
8362;BMP180;4218;48.326;14.304;2023-02-01T00:21:49;98718.00;;;2.10
8362;BMP180;4218;48.326;14.304;2023-02-01T00:24:17;98718.00;;;2.20
8362;BMP180;4218;48.326;14.304;2023-02-01T00:41:27;98712.00;;;2.00
8362;BMP180;4218;48.326;14.304;2023-02-01T00:43:57;98706.00;;;2.10
8362;BMP180;4218;48.326;14.304;2023-02-01T00:46:27;98722.00;;;2.10
8362;BMP180;4218;48.326;14.304;2023-02-01T00:48:54;98714.00;;;2.10
8362;BMP180;4218;48.326;14.304;2023-02-01T00:51:28;98711.00;;;2.00
8362;BMP180;4218;48.326;14.304;2023-02-01T00:54:00;98699.00;;;2.00
8362;BMP180;4218;48.326;14.304;2023-02-01T00:56:26;98720.00;;;2.10
8362;BMP180;4218;48.326;14.304;2023-02-01T00:58:56;98708.00;;;2.10
8362;BMP180;4218;48.326;14.304;2023-02-01T01:01:30;98686.00;;;2.10
8362;BMP180;4218;48.326;14.304;2023-02-01T01:04:03;98692.00;;;2.10
8362;BMP180;4218;48.326;14.304;2023-02-01T01:06:34;98704.00;;;2.20
8362;BMP180;4218;48.326;14.304;2023-02-01T01:09:06;98685.00;;;2.20
8362;BMP180;4218;48.326;14.304;2023-02-01T01:11:37;98709.00;;;2.30
8362;BMP180;4218;48.326;14.304;2023-02-01T01:14:06;98698.00;;;2.30
8362;BMP180;4218;48.326;14.304;2023-02-01T01:16:35;98682.00;;;2.20
8362;BMP180;4218;48.326;14.304;2023-02-01T01:19:02;98705.00;;;2.40
8362;BMP180;4218;48.326;14.304;2023-02-01T01:21:34;98683.00;;;2.40
8362;BMP180;4218;48.326;14.304;2023-02-01T01:24:27;98683.00;;;2.50
8362;BMP180;4218;48.326;14.304;2023-02-01T01:26:56;98674.00;;;2.40
8362;BMP180;4218;48.326;14.304;2023-02-01T01:29:24;98682.00;;;2.40
8362;BMP180;4218;48.326;14.304;2023-02-01T01:31:53;98686.00;;;2.40
8362;BMP180;4218;48.326;14.304;2023-02-01T01:34:24;98677.00;;;2.40
8362;BMP180;4218;48.326;14.304;2023-02-01T01:36:50;98671.00;;;2.50
8362;BMP180;4218;48.326;14.304;2023-02-01T01:39:16;98670.00;;;2.40
8362;BMP180;4218;48.326;14.304;2023-02-01T01:41:45;98666.00;;;2.50
8362;BMP180;4218;48.326;14.304;2023-02-01T01:47:22;98670.00;;;2.60
8362;BMP180;4218;48.326;14.304;2023-02-01T01:49:56;98691.00;;;2.70
8362;BMP180;4218;48.326;14.304;2023-02-01T01:52:23;98687.00;;;2.60
8362;BMP180;4218;48.326;14.304;2023-02-01T01:54:52;98666.00;;;2.60
8362;BMP180;4218;48.326;14.304;2023-02-01T01:57:44;98684.00;;;2.60
8362;BMP180;4218;48.326;14.304;2023-02-01T02:00:13;98682.00;;;2.70
8362;BMP180;4218;48.326;14.304;2023-02-01T02:02:44;98684.00;;;2.70
8362;BMP180;4218;48.326;14.304;2023-02-01T02:05:15;98676.00;;;2.70
8362;BMP180;4218;48.326;14.304;2023-02-01T02:07:48;98679.00;;;2.70
8362;BMP180;4218;48.326;14.304;2023-02-01T02:10:22;98672.00;;;2.80
8362;BMP180;4218;48.326;14.304;2023-02-01T02:13:14;98687.00;;;2.90
8362;BMP180;4218;48.326;14.304;2023-02-01T02:16:04;98679.00;;;2.90
8362;BMP180;4218;48.326;14.304;2023-02-01T02:21:56;98683.00;;;2.90
8362;BMP180;4218;48.326;14.304;2023-02-01T02:27:22;98684.00;;;3.00
8362;BMP180;4218;48.326;14.304;2023-02-01T02:33:31;98670.00;;;3.10
8362;BMP180;4218;48.326;14.304;2023-02-01T02:36:35;98675.00;;;3.00
8362;BMP180;4218;48.326;14.304;2023-02-01T02:42:13;98678.00;;;3.00
8362;BMP180;4218;48.326;14.304;2023-02-01T02:48:18;98675.00;;;2.90
8362;BMP180;4218;48.326;14.304;2023-02-01T02:50:53;98675.00;;;2.90
8362;BMP180;4218;48.326;14.304;2023-02-01T02:54:06;98652.00;;;2.90
8362;BMP180;4218;48.326;14.304;2023-02-01T02:56:53;98655.00;;;2.90
8362;BMP180;4218;48.326;14.304;2023-02-01T02:59:44;98659.00;;;2.80
8362;BMP180;4218;48.326;14.304;2023-02-01T03:02:33;98637.00;;;2.80
8362;BMP180;4218;48.326;14.304;2023-02-01T03:05:18;98643.00;;;2.80
8362;BMP180;4218;48.326;14.304;2023-02-01T03:13:14;98612.00;;;3.00
8362;BMP180;4218;48.326;14.304;2023-02-01T03:19:29;98631.00;;;3.00
8362;BMP180;4218;48.326;14.304;2023-02-01T03:22:32;98641.00;;;3.00
8362;BMP180;4218;48.326;14.304;2023-02-01T03:25:21;98630.00;;;3.00
8362;BMP180;4218;48.326;14.304;2023-02-01T03:28:06;98639.00;;;3.10
8362;BMP180;4218;48.326;14.304;2023-02-01T03:30:42;98614.00;;;3.00
8362;BMP180;4218;48.326;14.304;2023-02-01T03:33:16;98619.00;;;3.10
8362;BMP180;4218;48.326;14.304;2023-02-01T03:41:59;98599.00;;;3.10
8362;BMP180;4218;48.326;14.304;2023-02-01T03:44:37;98624.00;;;3.10
8362;BMP180;4218;48.326;14.304;2023-02-01T03:47:21;98627.00;;;3.00
8362;BMP180;4218;48.326;14.304;2023-02-01T03:50:12;98629.00;;;3.00
8362;BMP180;4218;48.326;14.304;2023-02-01T03:52:56;98621.00;;;3.00
8362;BMP180;4218;48.326;14.304;2023-02-01T03:55:27;98612.00;;;3.00
8362;BMP180;4218;48.326;14.304;2023-02-01T03:58:09;98601.00;;;3.00
8362;BMP180;4218;48.326;14.304;2023-02-01T04:00:39;98623.00;;;3.20
8362;BMP180;4218;48.326;14.304;2023-02-01T04:03:15;98615.00;;;3.10
8362;BMP180;4218;48.326;14.304;2023-02-01T04:05:48;98614.00;;;3.20
8362;BMP180;4218;48.326;14.304;2023-02-01T04:08:25;98592.00;;;3.20
8362;BMP180;4218;48.326;14.304;2023-02-01T04:10:54;98604.00;;;3.20
8362;BMP180;4218;48.326;14.304;2023-02-01T04:13:35;98578.00;;;3.30
8362;BMP180;4218;48.326;14.304;2023-02-01T04:16:05;98601.00;;;3.30
8362;BMP180;4218;48.326;14.304;2023-02-01T04:18:35;98603.00;;;3.40
8362;BMP180;4218;48.326;14.304;2023-02-01T04:21:11;98594.00;;;3.40
8362;BMP180;4218;48.326;14.304;2023-02-01T04:23:59;98604.00;;;3.50
8362;BMP180;4218;48.326;14.304;2023-02-01T04:26:29;98574.00;;;3.60
8362;BMP180;4218;48.326;14.304;2023-02-01T04:29:00;98568.00;;;3.60
8362;BMP180;4218;48.326;14.304;2023-02-01T04:31:30;98569.00;;;3.60
8362;BMP180;4218;48.326;14.304;2023-02-01T04:34:10;98569.00;;;3.60
8362;BMP180;4218;48.326;14.304;2023-02-01T04:36:41;98570.00;;;3.60
8362;BMP180;4218;48.326;14.304;2023-02-01T04:39:12;98579.00;;;3.60
8362;BMP180;4218;48.326;14.304;2023-02-01T04:41:43;98559.00;;;3.60
8362;BMP180;4218;48.326;14.304;2023-02-01T04:44:20;98570.00;;;3.80
8362;BMP180;4218;48.326;14.304;2023-02-01T04:46:46;98555.00;;;3.80
8362;BMP180;4218;48.326;14.304;2023-02-01T04:49:23;98557.00;;;3.80
8362;BMP180;4218;48.326;14.304;2023-02-01T04:51:58;98564.00;;;3.80
8362;BMP180;4218;48.326;14.304;2023-02-01T04:54:26;98573.00;;;3.80
8362;BMP180;4218;48.326;14.304;2023-02-01T04:56:53;98548.00;;;3.80
8362;BMP180;4218;48.326;14.304;2023-02-01T04:59:24;98548.00;;;4.00
8362;BMP180;4218;48.326;14.304;2023-02-01T05:01:54;98547.00;;;4.00
8362;BMP180;4218;48.326;14.304;2023-02-01T05:04:22;98554.00;;;3.90
8362;BMP180;4218;48.326;14.304;2023-02-01T05:06:59;98542.00;;;3.80
8362;BMP180;4218;48.326;14.304;2023-02-01T05:09:27;98537.00;;;3.90
8362;BMP180;4218;48.326;14.304;2023-02-01T05:11:57;98544.00;;;3.90
8362;BMP180;4218;48.326;14.304;2023-02-01T05:14:45;98547.00;;;4.00
8362;BMP180;4218;48.326;14.304;2023-02-01T05:17:17;98553.00;;;4.00
8362;BMP180;4218;48.326;14.304;2023-02-01T05:19:52;98557.00;;;4.00
8362;BMP180;4218;48.326;14.304;2023-02-01T05:22:26;98555.00;;;4.00
8362;BMP180;4218;48.326;14.304;2023-02-01T05:24:56;98545.00;;;4.00
8362;BMP180;4218;48.326;14.304;2023-02-01T05:27:30;98564.00;;;4.10
8362;BMP180;4218;48.326;14.304;2023-02-01T05:30:17;98542.00;;;4.10
8362;BMP180;4218;48.326;14.304;2023-02-01T05:32:51;98548.00;;;4.00
8362;BMP180;4218;48.326;14.304;2023-02-01T05:35:23;98564.00;;;4.10
8362;BMP180;4218;48.326;14.304;2023-02-01T05:37:49;98550.00;;;4.00
8362;BMP180;4218;48.326;14.304;2023-02-01T05:40:23;98549.00;;;4.10
8362;BMP180;4218;48.326;14.304;2023-02-01T05:42:54;98557.00;;;4.00
8362;BMP180;4218;48.326;14.304;2023-02-01T05:45:24;98561.00;;;4.10
8362;BMP180;4218;48.326;14.304;2023-02-01T05:48:17;98564.00;;;4.10
8362;BMP180;4218;48.326;14.304;2023-02-01T05:50:47;98557.00;;;4.20
8362;BMP180;4218;48.326;14.304;2023-02-01T05:53:24;98558.00;;;4.10
8362;BMP180;4218;48.326;14.304;2023-02-01T05:55:51;98557.00;;;4.20
8362;BMP180;4218;48.326;14.304;2023-02-01T05:58:25;98538.00;;;4.20
8362;BMP180;4218;48.326;14.304;2023-02-01T06:00:58;98539.00;;;4.20
8362;BMP180;4218;48.326;14.304;2023-02-01T06:03:29;98530.00;;;4.20
8362;BMP180;4218;48.326;14.304;2023-02-01T06:06:03;98552.00;;;4.10
8362;BMP180;4218;48.326;14.304;2023-02-01T06:08:30;98550.00;;;4.10
8362;BMP180;4218;48.326;14.304;2023-02-01T06:11:13;98551.00;;;4.20
8362;BMP180;4218;48.326;14.304;2023-02-01T06:14:00;98541.00;;;4.20
8362;BMP180;4218;48.326;14.304;2023-02-01T06:16:40;98543.00;;;4.20
8362;BMP180;4218;48.326;14.304;2023-02-01T06:19:34;98555.00;;;4.10
8362;BMP180;4218;48.326;14.304;2023-02-01T06:22:11;98564.00;;;4.20
8362;BMP180;4218;48.326;14.304;2023-02-01T06:24:44;98555.00;;;4.20
8362;BMP180;4218;48.326;14.304;2023-02-01T06:27:20;98567.00;;;4.10
8362;BMP180;4218;48.326;14.304;2023-02-01T06:30:05;98579.00;;;4.20
8362;BMP180;4218;48.326;14.304;2023-02-01T06:32:34;98582.00;;;4.20
8362;BMP180;4218;48.326;14.304;2023-02-01T06:35:06;98566.00;;;4.20
8362;BMP180;4218;48.326;14.304;2023-02-01T06:37:39;98583.00;;;4.30
8362;BMP180;4218;48.326;14.304;2023-02-01T06:40:13;98580.00;;;4.30
8362;BMP180;4218;48.326;14.304;2023-02-01T06:42:48;98590.00;;;4.20
8362;BMP180;4218;48.326;14.304;2023-02-01T06:46:05;98566.00;;;4.40
8362;BMP180;4218;48.326;14.304;2023-02-01T06:49:01;98571.00;;;4.40
8362;BMP180;4218;48.326;14.304;2023-02-01T06:51:31;98583.00;;;4.30
8362;BMP180;4218;48.326;14.304;2023-02-01T06:54:03;98573.00;;;4.40
8362;BMP180;4218;48.326;14.304;2023-02-01T06:56:37;98560.00;;;4.40
8362;BMP180;4218;48.326;14.304;2023-02-01T06:59:07;98571.00;;;4.30
8362;BMP180;4218;48.326;14.304;2023-02-01T07:01:35;98574.00;;;4.30
8362;BMP180;4218;48.326;14.304;2023-02-01T07:04:54;98564.00;;;4.40
8362;BMP180;4218;48.326;14.304;2023-02-01T07:07:40;98589.00;;;4.30
8362;BMP180;4218;48.326;14.304;2023-02-01T07:10:28;98591.00;;;4.30
8362;BMP180;4218;48.326;14.304;2023-02-01T07:13:25;98560.00;;;4.40
8362;BMP180;4218;48.326;14.304;2023-02-01T07:16:33;98574.00;;;4.30
8362;BMP180;4218;48.326;14.304;2023-02-01T07:19:47;98554.00;;;4.30
8362;BMP180;4218;48.326;14.304;2023-02-01T07:22:32;98554.00;;;4.30
8362;BMP180;4218;48.326;14.304;2023-02-01T07:25:12;98567.00;;;4.40
8362;BMP180;4218;48.326;14.304;2023-02-01T07:27:41;98536.00;;;4.40
8362;BMP180;4218;48.326;14.304;2023-02-01T07:30:25;98555.00;;;4.40
8362;BMP180;4218;48.326;14.304;2023-02-01T07:32:57;98559.00;;;4.30
8362;BMP180;4218;48.326;14.304;2023-02-01T07:35:29;98566.00;;;4.30
8362;BMP180;4218;48.326;14.304;2023-02-01T07:38:00;98536.00;;;4.40
8362;BMP180;4218;48.326;14.304;2023-02-01T07:40:31;98544.00;;;4.50
8362;BMP180;4218;48.326;14.304;2023-02-01T07:42:57;98539.00;;;4.40
8362;BMP180;4218;48.326;14.304;2023-02-01T07:45:25;98542.00;;;4.50
8362;BMP180;4218;48.326;14.304;2023-02-01T07:47:54;98544.00;;;4.40
8362;BMP180;4218;48.326;14.304;2023-02-01T07:50:20;98539.00;;;4.40
8362;BMP180;4218;48.326;14.304;2023-02-01T07:52:51;98538.00;;;4.30
8362;BMP180;4218;48.326;14.304;2023-02-01T07:55:25;98561.00;;;4.40
8362;BMP180;4218;48.326;14.304;2023-02-01T07:57:57;98543.00;;;4.40
8362;BMP180;4218;48.326;14.304;2023-02-01T08:00:28;98528.00;;;4.50
8362;BMP180;4218;48.326;14.304;2023-02-01T08:03:12;98545.00;;;4.50
8362;BMP180;4218;48.326;14.304;2023-02-01T08:05:38;98538.00;;;4.50
8362;BMP180;4218;48.326;14.304;2023-02-01T08:08:07;98520.00;;;4.50
8362;BMP180;4218;48.326;14.304;2023-02-01T08:10:35;98527.00;;;4.50
8362;BMP180;4218;48.326;14.304;2023-02-01T08:13:02;98547.00;;;4.30
8362;BMP180;4218;48.326;14.304;2023-02-01T08:15:30;98522.00;;;4.30
8362;BMP180;4218;48.326;14.304;2023-02-01T08:18:05;98522.00;;;4.30
8362;BMP180;4218;48.326;14.304;2023-02-01T08:20:35;98534.00;;;4.10
8362;BMP180;4218;48.326;14.304;2023-02-01T08:23:02;98519.00;;;4.20
8362;BMP180;4218;48.326;14.304;2023-02-01T08:25:28;98513.00;;;4.10
8362;BMP180;4218;48.326;14.304;2023-02-01T08:27:55;98511.00;;;4.10
8362;BMP180;4218;48.326;14.304;2023-02-01T08:30:21;98513.00;;;4.00
8362;BMP180;4218;48.326;14.304;2023-02-01T08:32:47;98514.00;;;4.00
8362;BMP180;4218;48.326;14.304;2023-02-01T08:35:13;98510.00;;;3.80
8362;BMP180;4218;48.326;14.304;2023-02-01T08:37:38;98505.00;;;3.80
8362;BMP180;4218;48.326;14.304;2023-02-01T08:40:04;98527.00;;;3.70
8362;BMP180;4218;48.326;14.304;2023-02-01T08:42:31;98518.00;;;3.70
8362;BMP180;4218;48.326;14.304;2023-02-01T08:45:15;98523.00;;;3.70
8362;BMP180;4218;48.326;14.304;2023-02-01T08:47:40;98529.00;;;3.70
8362;BMP180;4218;48.326;14.304;2023-02-01T08:50:06;98528.00;;;3.70
8362;BMP180;4218;48.326;14.304;2023-02-01T08:52:31;98527.00;;;3.70
8362;BMP180;4218;48.326;14.304;2023-02-01T08:54:57;98526.00;;;3.70
8362;BMP180;4218;48.326;14.304;2023-02-01T08:57:24;98529.00;;;3.70
8362;BMP180;4218;48.326;14.304;2023-02-01T08:59:50;98521.00;;;3.80
8362;BMP180;4218;48.326;14.304;2023-02-01T09:02:18;98489.00;;;3.80
8362;BMP180;4218;48.326;14.304;2023-02-01T09:04:47;98503.00;;;3.90
8362;BMP180;4218;48.326;14.304;2023-02-01T09:07:13;98488.00;;;3.90
8362;BMP180;4218;48.326;14.304;2023-02-01T09:09:45;98511.00;;;3.80
8362;BMP180;4218;48.326;14.304;2023-02-01T09:12:14;98522.00;;;3.80
8362;BMP180;4218;48.326;14.304;2023-02-01T09:14:41;98501.00;;;3.80
8362;BMP180;4218;48.326;14.304;2023-02-01T09:17:10;98500.00;;;3.80
8362;BMP180;4218;48.326;14.304;2023-02-01T09:19:39;98507.00;;;3.70
8362;BMP180;4218;48.326;14.304;2023-02-01T09:22:16;98510.00;;;3.60
8362;BMP180;4218;48.326;14.304;2023-02-01T09:24:46;98504.00;;;3.70
8362;BMP180;4218;48.326;14.304;2023-02-01T09:27:15;98513.00;;;3.70
8362;BMP180;4218;48.326;14.304;2023-02-01T09:29:41;98529.00;;;3.70
8362;BMP180;4218;48.326;14.304;2023-02-01T09:32:13;98502.00;;;3.70
8362;BMP180;4218;48.326;14.304;2023-02-01T09:34:40;98506.00;;;3.80
8362;BMP180;4218;48.326;14.304;2023-02-01T09:37:09;98495.00;;;3.70
8362;BMP180;4218;48.326;14.304;2023-02-01T09:39:42;98527.00;;;3.80
8362;BMP180;4218;48.326;14.304;2023-02-01T09:45:44;98518.00;;;3.90
8362;BMP180;4218;48.326;14.304;2023-02-01T09:48:20;98512.00;;;3.80
8362;BMP180;4218;48.326;14.304;2023-02-01T09:50:57;98514.00;;;3.90
8362;BMP180;4218;48.326;14.304;2023-02-01T09:53:48;98512.00;;;3.90
8362;BMP180;4218;48.326;14.304;2023-02-01T09:56:47;98511.00;;;3.90
8362;BMP180;4218;48.326;14.304;2023-02-01T10:02:12;98497.00;;;4.00
8362;BMP180;4218;48.326;14.304;2023-02-01T10:04:42;98488.00;;;4.10
8362;BMP180;4218;48.326;14.304;2023-02-01T10:07:31;98509.00;;;4.20
8362;BMP180;4218;48.326;14.304;2023-02-01T10:18:59;98491.00;;;4.00
8362;BMP180;4218;48.326;14.304;2023-02-01T10:27:02;98502.00;;;3.70
8362;BMP180;4218;48.326;14.304;2023-02-01T10:29:44;98502.00;;;3.70
8362;BMP180;4218;48.326;14.304;2023-02-01T10:32:23;98517.00;;;3.60
8362;BMP180;4218;48.326;14.304;2023-02-01T10:35:16;98514.00;;;3.60
8362;BMP180;4218;48.326;14.304;2023-02-01T10:37:45;98542.00;;;3.50
8362;BMP180;4218;48.326;14.304;2023-02-01T10:40:33;98541.00;;;3.40
8362;BMP180;4218;48.326;14.304;2023-02-01T10:43:03;98535.00;;;3.40
8362;BMP180;4218;48.326;14.304;2023-02-01T10:45:30;98556.00;;;3.30
8362;BMP180;4218;48.326;14.304;2023-02-01T10:48:00;98524.00;;;3.10
8362;BMP180;4218;48.326;14.304;2023-02-01T10:50:49;98551.00;;;3.10
8362;BMP180;4218;48.326;14.304;2023-02-01T10:53:20;98524.00;;;3.00
8362;BMP180;4218;48.326;14.304;2023-02-01T10:59:35;98546.00;;;3.10
8362;BMP180;4218;48.326;14.304;2023-02-01T11:05:10;98529.00;;;3.00
8362;BMP180;4218;48.326;14.304;2023-02-01T11:07:39;98542.00;;;3.00
8362;BMP180;4218;48.326;14.304;2023-02-01T11:10:05;98544.00;;;3.00
8362;BMP180;4218;48.326;14.304;2023-02-01T11:12:35;98544.00;;;3.00
8362;BMP180;4218;48.326;14.304;2023-02-01T11:17:43;98557.00;;;3.10
8362;BMP180;4218;48.326;14.304;2023-02-01T11:23:01;98537.00;;;2.90
8362;BMP180;4218;48.326;14.304;2023-02-01T11:25:27;98537.00;;;2.90
8362;BMP180;4218;48.326;14.304;2023-02-01T11:27:55;98521.00;;;2.90
8362;BMP180;4218;48.326;14.304;2023-02-01T11:30:41;98535.00;;;3.20
8362;BMP180;4218;48.326;14.304;2023-02-01T11:33:16;98513.00;;;3.40
8362;BMP180;4218;48.326;14.304;2023-02-01T11:35:45;98502.00;;;3.60
8362;BMP180;4218;48.326;14.304;2023-02-01T11:41:17;98505.00;;;3.80
8362;BMP180;4218;48.326;14.304;2023-02-01T11:43:57;98503.00;;;4.10
8362;BMP180;4218;48.326;14.304;2023-02-01T11:46:35;98510.00;;;4.20
8362;BMP180;4218;48.326;14.304;2023-02-01T11:52:06;98502.00;;;4.20
8362;BMP180;4218;48.326;14.304;2023-02-01T12:03:29;98493.00;;;3.80
8362;BMP180;4218;48.326;14.304;2023-02-01T12:28:45;98443.00;;;3.90
8362;BMP180;4218;48.326;14.304;2023-02-01T12:37:18;98442.00;;;3.90
8362;BMP180;4218;48.326;14.304;2023-02-01T12:42:48;98441.00;;;3.90
8362;BMP180;4218;48.326;14.304;2023-02-01T12:45:28;98447.00;;;3.90
8362;BMP180;4218;48.326;14.304;2023-02-01T12:48:05;98449.00;;;3.90
8362;BMP180;4218;48.326;14.304;2023-02-01T12:50:46;98423.00;;;3.90
8362;BMP180;4218;48.326;14.304;2023-02-01T12:56:46;98448.00;;;4.10
8362;BMP180;4218;48.326;14.304;2023-02-01T13:02:30;98436.00;;;4.20
8362;BMP180;4218;48.326;14.304;2023-02-01T13:08:21;98483.00;;;4.20
8362;BMP180;4218;48.326;14.304;2023-02-01T13:11:13;98500.00;;;4.10
8362;BMP180;4218;48.326;14.304;2023-02-01T13:16:21;98497.00;;;3.60
8362;BMP180;4218;48.326;14.304;2023-02-01T13:18:55;98503.00;;;3.30
8362;BMP180;4218;48.326;14.304;2023-02-01T13:21:29;98505.00;;;3.20
8362;BMP180;4218;48.326;14.304;2023-02-01T13:24:00;98514.00;;;3.10
8362;BMP180;4218;48.326;14.304;2023-02-01T13:26:27;98498.00;;;3.00
8362;BMP180;4218;48.326;14.304;2023-02-01T13:29:12;98478.00;;;2.90
8362;BMP180;4218;48.326;14.304;2023-02-01T13:40:30;98483.00;;;3.00
8362;BMP180;4218;48.326;14.304;2023-02-01T13:43:23;98480.00;;;3.10
8362;BMP180;4218;48.326;14.304;2023-02-01T13:45:52;98475.00;;;3.20
8362;BMP180;4218;48.326;14.304;2023-02-01T13:48:33;98465.00;;;3.20
8362;BMP180;4218;48.326;14.304;2023-02-01T13:51:00;98466.00;;;3.30
8362;BMP180;4218;48.326;14.304;2023-02-01T13:53:29;98459.00;;;3.30
8362;BMP180;4218;48.326;14.304;2023-02-01T13:56:06;98473.00;;;3.40
8362;BMP180;4218;48.326;14.304;2023-02-01T13:58:37;98483.00;;;3.40
8362;BMP180;4218;48.326;14.304;2023-02-01T14:01:32;98492.00;;;3.50
8362;BMP180;4218;48.326;14.304;2023-02-01T14:04:05;98489.00;;;3.50
8362;BMP180;4218;48.326;14.304;2023-02-01T14:11:53;98487.00;;;3.70
8362;BMP180;4218;48.326;14.304;2023-02-01T14:19:37;98477.00;;;3.80
8362;BMP180;4218;48.326;14.304;2023-02-01T14:24:51;98481.00;;;3.80
8362;BMP180;4218;48.326;14.304;2023-02-01T14:27:30;98494.00;;;3.90
8362;BMP180;4218;48.326;14.304;2023-02-01T14:30:06;98476.00;;;3.90
8362;BMP180;4218;48.326;14.304;2023-02-01T14:32:40;98477.00;;;4.00
8362;BMP180;4218;48.326;14.304;2023-02-01T14:35:24;98482.00;;;4.00
8362;BMP180;4218;48.326;14.304;2023-02-01T14:37:59;98495.00;;;4.00
8362;BMP180;4218;48.326;14.304;2023-02-01T14:40:28;98478.00;;;4.10
8362;BMP180;4218;48.326;14.304;2023-02-01T14:42:54;98492.00;;;4.20
8362;BMP180;4218;48.326;14.304;2023-02-01T14:50:46;98497.00;;;4.20
8362;BMP180;4218;48.326;14.304;2023-02-01T14:53:15;98493.00;;;4.20
8362;BMP180;4218;48.326;14.304;2023-02-01T14:58:29;98482.00;;;4.20
8362;BMP180;4218;48.326;14.304;2023-02-01T15:00:59;98472.00;;;4.10
8362;BMP180;4218;48.326;14.304;2023-02-01T15:06:29;98493.00;;;3.90
8362;BMP180;4218;48.326;14.304;2023-02-01T15:09:35;98489.00;;;3.80
8362;BMP180;4218;48.326;14.304;2023-02-01T15:14:40;98449.00;;;3.80
8362;BMP180;4218;48.326;14.304;2023-02-01T15:17:22;98478.00;;;3.80
8362;BMP180;4218;48.326;14.304;2023-02-01T15:22:31;98462.00;;;3.80
8362;BMP180;4218;48.326;14.304;2023-02-01T15:25:17;98457.00;;;3.90
8362;BMP180;4218;48.326;14.304;2023-02-01T15:27:45;98463.00;;;3.90
8362;BMP180;4218;48.326;14.304;2023-02-01T15:32:47;98451.00;;;3.90
8362;BMP180;4218;48.326;14.304;2023-02-01T15:35:36;98472.00;;;3.90
8362;BMP180;4218;48.326;14.304;2023-02-01T15:38:29;98472.00;;;3.90
8362;BMP180;4218;48.326;14.304;2023-02-01T15:41:09;98472.00;;;4.00
8362;BMP180;4218;48.326;14.304;2023-02-01T15:44:07;98446.00;;;4.00
8362;BMP180;4218;48.326;14.304;2023-02-01T15:46:35;98466.00;;;4.10
8362;BMP180;4218;48.326;14.304;2023-02-01T15:49:02;98461.00;;;4.00
8362;BMP180;4218;48.326;14.304;2023-02-01T15:51:32;98441.00;;;4.20
8362;BMP180;4218;48.326;14.304;2023-02-01T15:54:02;98461.00;;;4.30
8362;BMP180;4218;48.326;14.304;2023-02-01T15:56:36;98492.00;;;4.30
8362;BMP180;4218;48.326;14.304;2023-02-01T15:59:40;98515.00;;;4.30
8362;BMP180;4218;48.326;14.304;2023-02-01T16:03:01;98517.00;;;4.20
8362;BMP180;4218;48.326;14.304;2023-02-01T16:05:40;98518.00;;;4.00
8362;BMP180;4218;48.326;14.304;2023-02-01T16:08:48;98495.00;;;3.80
8362;BMP180;4218;48.326;14.304;2023-02-01T16:11:28;98506.00;;;3.70
8362;BMP180;4218;48.326;14.304;2023-02-01T16:14:04;98497.00;;;3.70
8362;BMP180;4218;48.326;14.304;2023-02-01T16:22:52;98514.00;;;3.60
8362;BMP180;4218;48.326;14.304;2023-02-01T16:25:17;98506.00;;;3.60
8362;BMP180;4218;48.326;14.304;2023-02-01T16:27:42;98514.00;;;3.60
8362;BMP180;4218;48.326;14.304;2023-02-01T16:30:08;98516.00;;;3.50
8362;BMP180;4218;48.326;14.304;2023-02-01T16:32:35;98508.00;;;3.70
8362;BMP180;4218;48.326;14.304;2023-02-01T16:35:24;98509.00;;;3.70
8362;BMP180;4218;48.326;14.304;2023-02-01T16:37:49;98501.00;;;3.70
8362;BMP180;4218;48.326;14.304;2023-02-01T16:40:16;98493.00;;;3.60
8362;BMP180;4218;48.326;14.304;2023-02-01T16:42:45;98491.00;;;3.70
8362;BMP180;4218;48.326;14.304;2023-02-01T16:45:11;98495.00;;;3.70
8362;BMP180;4218;48.326;14.304;2023-02-01T16:47:38;98507.00;;;3.70
8362;BMP180;4218;48.326;14.304;2023-02-01T16:50:17;98492.00;;;3.90
8362;BMP180;4218;48.326;14.304;2023-02-01T16:52:46;98498.00;;;3.80
8362;BMP180;4218;48.326;14.304;2023-02-01T16:55:16;98481.00;;;3.80
8362;BMP180;4218;48.326;14.304;2023-02-01T16:57:43;98483.00;;;3.80
8362;BMP180;4218;48.326;14.304;2023-02-01T17:00:10;98483.00;;;3.80
8362;BMP180;4218;48.326;14.304;2023-02-01T17:02:37;98483.00;;;4.00
8362;BMP180;4218;48.326;14.304;2023-02-01T17:05:03;98476.00;;;3.90
8362;BMP180;4218;48.326;14.304;2023-02-01T17:07:29;98489.00;;;4.00
8362;BMP180;4218;48.326;14.304;2023-02-01T17:09:54;98489.00;;;3.90
8362;BMP180;4218;48.326;14.304;2023-02-01T17:12:26;98492.00;;;4.10
8362;BMP180;4218;48.326;14.304;2023-02-01T17:14:51;98471.00;;;4.00
8362;BMP180;4218;48.326;14.304;2023-02-01T17:17:18;98487.00;;;4.00
8362;BMP180;4218;48.326;14.304;2023-02-01T17:19:47;98477.00;;;4.00
8362;BMP180;4218;48.326;14.304;2023-02-01T17:22:15;98476.00;;;4.10
8362;BMP180;4218;48.326;14.304;2023-02-01T17:24:44;98479.00;;;4.10
8362;BMP180;4218;48.326;14.304;2023-02-01T17:27:10;98474.00;;;4.20
8362;BMP180;4218;48.326;14.304;2023-02-01T17:29:35;98461.00;;;4.20
8362;BMP180;4218;48.326;14.304;2023-02-01T17:32:02;98463.00;;;4.20
8362;BMP180;4218;48.326;14.304;2023-02-01T17:34:27;98473.00;;;4.30
8362;BMP180;4218;48.326;14.304;2023-02-01T17:36:53;98473.00;;;4.30
8362;BMP180;4218;48.326;14.304;2023-02-01T17:39:18;98476.00;;;4.40
8362;BMP180;4218;48.326;14.304;2023-02-01T17:42:04;98474.00;;;4.40
8362;BMP180;4218;48.326;14.304;2023-02-01T17:44:30;98456.00;;;4.50
8362;BMP180;4218;48.326;14.304;2023-02-01T17:46:56;98471.00;;;4.50
8362;BMP180;4218;48.326;14.304;2023-02-01T17:49:23;98477.00;;;4.50
8362;BMP180;4218;48.326;14.304;2023-02-01T17:51:49;98486.00;;;4.50
8362;BMP180;4218;48.326;14.304;2023-02-01T17:54:15;98483.00;;;4.40
8362;BMP180;4218;48.326;14.304;2023-02-01T17:56:45;98484.00;;;4.50
8362;BMP180;4218;48.326;14.304;2023-02-01T17:59:12;98475.00;;;4.40
8362;BMP180;4218;48.326;14.304;2023-02-01T18:01:39;98475.00;;;4.50
8362;BMP180;4218;48.326;14.304;2023-02-01T18:04:05;98469.00;;;4.60
8362;BMP180;4218;48.326;14.304;2023-02-01T18:06:33;98476.00;;;4.50
8362;BMP180;4218;48.326;14.304;2023-02-01T18:08:59;98474.00;;;4.50
8362;BMP180;4218;48.326;14.304;2023-02-01T18:11:24;98469.00;;;4.70
8362;BMP180;4218;48.326;14.304;2023-02-01T18:13:52;98460.00;;;4.70
8362;BMP180;4218;48.326;14.304;2023-02-01T18:16:23;98472.00;;;4.70
8362;BMP180;4218;48.326;14.304;2023-02-01T18:18:51;98464.00;;;4.80
8362;BMP180;4218;48.326;14.304;2023-02-01T18:21:18;98472.00;;;4.80
8362;BMP180;4218;48.326;14.304;2023-02-01T18:23:44;98468.00;;;4.70